sensor_id;sensor_type;location;lat;lon;timestamp;pressure;altitude;pressure_sealevel;temperature;humidity
58761;BME280;44529;47.464;19.014;2022-12-18T06:07:14;102034.16;;;-4.05;92.01
58761;BME280;44529;47.464;19.014;2022-12-18T06:10:38;102035.41;;;-3.93;91.70
58761;BME280;44529;47.464;19.014;2022-12-18T06:14:02;102040.75;;;-4.01;91.92
58761;BME280;44529;47.464;19.014;2022-12-18T06:17:37;102045.03;;;-4.00;91.82
58761;BME280;44529;47.464;19.014;2022-12-18T06:20:59;102039.75;;;-4.00;91.96
58761;BME280;44529;47.464;19.014;2022-12-18T06:24:12;102037.28;;;-4.02;91.64
58761;BME280;44529;47.464;19.014;2022-12-18T06:27:39;102048.69;;;-4.10;91.73
58761;BME280;44529;47.464;19.014;2022-12-18T06:31:08;102058.66;;;-4.28;92.85
58761;BME280;44529;47.464;19.014;2022-12-18T06:34:29;102060.63;;;-4.22;92.43
58761;BME280;44529;47.464;19.014;2022-12-18T06:37:49;102070.97;;;-4.04;91.05
58761;BME280;44529;47.464;19.014;2022-12-18T06:41:20;102072.16;;;-4.15;92.02
58761;BME280;44529;47.464;19.014;2022-12-18T06:44:54;102086.19;;;-4.22;92.03
58761;BME280;44529;47.464;19.014;2022-12-18T06:48:26;102089.81;;;-4.15;91.72
58761;BME280;44529;47.464;19.014;2022-12-18T06:51:44;102090.34;;;-4.28;91.89
58761;BME280;44529;47.464;19.014;2022-12-18T06:55:01;102089.50;;;-4.28;92.00
58761;BME280;44529;47.464;19.014;2022-12-18T06:58:22;102087.53;;;-4.18;91.23
58761;BME280;44529;47.464;19.014;2022-12-18T07:01:49;102109.00;;;-4.29;91.50
58761;BME280;44529;47.464;19.014;2022-12-18T07:05:08;102113.78;;;-4.25;91.58
58761;BME280;44529;47.464;19.014;2022-12-18T07:08:29;102118.88;;;-4.23;91.31
58761;BME280;44529;47.464;19.014;2022-12-18T07:12:06;102121.19;;;-4.12;91.15
58761;BME280;44529;47.464;19.014;2022-12-18T07:15:29;102120.34;;;-4.04;90.83
58761;BME280;44529;47.464;19.014;2022-12-18T07:18:37;102133.06;;;-4.16;90.79
58761;BME280;44529;47.464;19.014;2022-12-18T07:22:00;102135.22;;;-4.12;91.02
58761;BME280;44529;47.464;19.014;2022-12-18T07:25:12;102153.53;;;-4.10;90.73
58761;BME280;44529;47.464;19.014;2022-12-18T07:28:28;102144.47;;;-4.16;90.74
58761;BME280;44529;47.464;19.014;2022-12-18T07:31:38;102154.88;;;-4.22;92.10
58761;BME280;44529;47.464;19.014;2022-12-18T07:34:59;102161.47;;;-4.10;91.38
58761;BME280;44529;47.464;19.014;2022-12-18T07:38:31;102169.88;;;-3.98;90.76
58761;BME280;44529;47.464;19.014;2022-12-18T07:41:48;102168.53;;;-4.02;90.97
58761;BME280;44529;47.464;19.014;2022-12-18T07:45:44;102174.47;;;-4.00;90.89
58761;BME280;44529;47.464;19.014;2022-12-18T07:48:57;102181.59;;;-3.93;90.64
58761;BME280;44529;47.464;19.014;2022-12-18T07:52:18;102188.31;;;-3.82;90.46
58761;BME280;44529;47.464;19.014;2022-12-18T07:56:09;102192.28;;;-3.78;90.44
58761;BME280;44529;47.464;19.014;2022-12-18T21:20:21;102582.78;;;-3.21;92.38
58761;BME280;44529;47.464;19.014;2022-12-18T21:25:00;102586.22;;;-3.29;92.55
58761;BME280;44529;47.464;19.014;2022-12-18T21:29:17;102582.25;;;-3.25;92.52
58761;BME280;44529;47.464;19.014;2022-12-18T21:34:09;102582.09;;;-3.32;92.35
58761;BME280;44529;47.464;19.014;2022-12-18T21:43:17;102577.78;;;-3.33;92.79
58761;BME280;44529;47.464;19.014;2022-12-18T21:47:27;102573.28;;;-3.48;93.05
58761;BME280;44529;47.464;19.014;2022-12-18T21:51:59;102564.97;;;-3.62;93.69
58761;BME280;44529;47.464;19.014;2022-12-18T22:18:10;102557.81;;;-3.27;96.33
58761;BME280;44529;47.464;19.014;2022-12-18T22:29:59;102564.44;;;-2.98;96.30
58761;BME280;44529;47.464;19.014;2022-12-18T22:34:14;102571.06;;;-2.94;96.01
58761;BME280;44529;47.464;19.014;2022-12-18T22:38:24;102565.13;;;-2.88;95.39
58761;BME280;44529;47.464;19.014;2022-12-18T22:42:58;102563.78;;;-2.84;95.31
58761;BME280;44529;47.464;19.014;2022-12-18T22:47:01;102577.19;;;-2.86;95.62
58761;BME280;44529;47.464;19.014;2022-12-18T22:54:41;102572.25;;;-2.89;95.76
58761;BME280;44529;47.464;19.014;2022-12-18T22:58:46;102587.59;;;-2.84;95.77
58761;BME280;44529;47.464;19.014;2022-12-18T23:03:03;102583.00;;;-2.82;95.48
58761;BME280;44529;47.464;19.014;2022-12-18T23:07:37;102578.34;;;-2.80;95.29
58761;BME280;44529;47.464;19.014;2022-12-18T23:11:50;102588.59;;;-2.85;97.56
58761;BME280;44529;47.464;19.014;2022-12-18T23:15:58;102583.47;;;-2.79;96.97
58761;BME280;44529;47.464;19.014;2022-12-18T23:19:39;102579.84;;;-2.69;96.78
58761;BME280;44529;47.464;19.014;2022-12-18T23:23:35;102586.47;;;-2.57;95.62
58761;BME280;44529;47.464;19.014;2022-12-18T23:27:44;102587.94;;;-2.55;94.57
58761;BME280;44529;47.464;19.014;2022-12-18T23:31:55;102592.56;;;-2.49;94.79
58761;BME280;44529;47.464;19.014;2022-12-18T23:56:47;102583.81;;;-2.65;94.36
